Las Vegas, Nevada
Traffic Map
Current Weather Conditions
Las Vegas, Nevada
Few Clouds
Few Clouds
28°
Feels Like: 28°
Wind Chill: 28° Ceiling: Unl
Heat Index: 28° Visibility: 10mi
Dew Point: -1° Wind: 15mph
Humidity: 16% Direction: 340° (NNW)
Pressure: 29.88in Gusts: 25mph
Raw Report DataKLAS 011956Z 34013G22KT 10SM FEW120 28/M01 A2988 RMK AO2 SLP096 T02781006
Traffic Incident Summary
Active as of:
Severity:
Category:
InformationThere was an issue retrieving the traffic information for this location. Please try a different location or try again shortly.
Advertisements
Track Severe Weather on mobile